Home > Products > Valid Products > TAF

000
FTUS43 KILX 282300
TAFPIA
TAF
KPIA 282331Z 2900/2924 14005KT P6SM SKC
     FM290500 16011KT P6SM BKN200
     FM291200 17015G24KT P6SM SCT035 OVC100
     FM291400 19021G30KT P6SM VCSH BKN030=



000
FTUS43 KILX 282300
TAFDEC
TAF
KDEC 282331Z 2900/2924 VRB05KT P6SM SKC
     FM290500 16008KT P6SM BKN200
     FM291200 17017G23KT P6SM SCT040 BKN100
     FM291500 18020G28KT P6SM VCSH BKN035=



000
FTUS43 KILX 282300
TAFSPI
TAF
KSPI 282331Z 2900/2924 13006KT P6SM SKC
     FM290500 16011KT P6SM BKN200
     FM291200 17017G23KT P6SM SCT040 BKN100
     FM291400 19020G28KT P6SM VCSH BKN035=



000
FTUS43 KILX 282300
TAFBMI
TAF
KBMI 282331Z 2900/2924 12006KT P6SM SKC
     FM290500 17013KT P6SM BKN200
     FM291200 18020G28KT P6SM SCT040 OVC100
     FM291500 19023G30KT P6SM VCSH BKN030=



000
FTUS43 KILX 282300
TAFCMI
TAF
KCMI 282331Z 2900/2924 VRB05KT P6SM SKC
     FM290500 15009KT P6SM BKN200
     FM291300 16018G24KT P6SM SCT040 BKN100
     FM291600 19023G31KT P6SM VCSH BKN035=



000
FTUS43 KILX 281700
TAFBMI
TAF
KBMI 281731Z 2818/2918 12006KT P6SM SKC
     FM290500 17013KT P6SM BKN200
     FM291200 18020G28KT P6SM SCT040 OVC100
     FM291500 19023G30KT P6SM VCSH BKN030=



000
FTUS43 KILX 281700
TAFCMI
TAF
KCMI 281731Z 2818/2918 VRB05KT P6SM SKC
     FM290500 15009KT P6SM BKN200
     FM291300 16018G24KT P6SM SCT040 BKN100
     FM291700 19023G31KT P6SM VCSH BKN035=



000
FTUS43 KILX 281700
TAFSPI
TAF
KSPI 281731Z 2818/2918 13006KT P6SM SKC
     FM290500 16011KT P6SM BKN200
     FM291200 17017G23KT P6SM SCT040 BKN100
     FM291500 19020G28KT P6SM VCSH BKN035=



000
FTUS43 KILX 281700
TAFPIA
TAF
KPIA 281731Z 2818/2918 14005KT P6SM SKC
     FM290500 16011KT P6SM BKN200
     FM291200 17015G24KT P6SM SCT035 OVC100
     FM291500 19021G30KT P6SM VCSH BKN030=



000
FTUS43 KILX 281700
TAFDEC
TAF
KDEC 281731Z 2818/2918 VRB05KT P6SM SKC
     FM290500 16008KT P6SM BKN200
     FM291200 17017G23KT P6SM SCT040 BKN100
     FM291600 18020G28KT P6SM VCSH BKN035=



000
FTUS43 KILX 281700
TAFDEC
TAF
KDEC 281731Z 2818/2918 VRB05KT P6SM SKC
     FM290500 16008KT P6SM BKN200
     FM291200 17017G23KT P6SM SCT040 BKN100
     FM291600 18020G28KT P6SM VCSH BKN035=



000
FTUS43 KILX 281700
TAFSPI
TAF
KSPI 281731Z 2818/2918 13006KT P6SM SKC
     FM290500 16011KT P6SM BKN200
     FM291200 17017G23KT P6SM SCT040 BKN100
     FM291500 19020G28KT P6SM VCSH BKN035=



000
FTUS43 KILX 281700
TAFPIA
TAF
KPIA 281731Z 2818/2918 14005KT P6SM SKC
     FM290500 16011KT P6SM BKN200
     FM291200 17015G24KT P6SM SCT035 OVC100
     FM291500 19021G30KT P6SM VCSH BKN030=



000
FTUS43 KILX 281700
TAFBMI
TAF
KBMI 281731Z 2818/2918 12006KT P6SM SKC
     FM290500 17013KT P6SM BKN200
     FM291200 18020G28KT P6SM SCT040 OVC100
     FM291500 19023G30KT P6SM VCSH BKN030=



000
FTUS43 KILX 281700
TAFCMI
TAF
KCMI 281731Z 2818/2918 VRB05KT P6SM SKC
     FM290500 15009KT P6SM BKN200
     FM291300 16018G24KT P6SM SCT040 BKN100
     FM291700 19023G31KT P6SM VCSH BKN035=



000
FTUS43 KILX 281100
TAFSPI
TAF
KSPI 281125Z 2812/2912 11005KT P6SM BKN250
     FM290500 17010KT P6SM BKN200=



000
FTUS43 KILX 281100
TAFBMI
TAF
KBMI 281125Z 2812/2912 VRB06KT P6SM SCT250
     FM290500 18012KT P6SM BKN200=



000
FTUS43 KILX 281100
TAFCMI
TAF
KCMI 281125Z 2812/2912 VRB05KT P6SM SKC
     FM290500 16010KT P6SM BKN200=



000
FTUS43 KILX 281100
TAFDEC
TAF
KDEC 281125Z 2812/2912 VRB05KT P6SM SCT250
     FM290500 17010KT P6SM BKN200=



000
FTUS43 KILX 281100
TAFPIA
TAF
KPIA 281125Z 2812/2912 VRB05KT P6SM SCT250
     FM290500 18010KT P6SM BKN200=



000
FTUS43 KILX 280500
TAFPIA
TAF
KPIA 280520Z 2806/2906 VRB05KT P6SM SCT250=



000
FTUS43 KILX 280500
TAFBMI
TAF
KBMI 280520Z 2806/2906 VRB06KT P6SM SCT250=



000
FTUS43 KILX 280500
TAFSPI
TAF
KSPI 280520Z 2806/2906 VRB05KT P6SM BKN250=



000
FTUS43 KILX 280500
TAFBMI
TAF
KBMI 280520Z 2806/2906 VRB06KT P6SM SCT250=



000
FTUS43 KILX 280500
TAFCMI
TAF
KCMI 280520Z 2806/2906 VRB05KT P6SM SKC=



000
FTUS43 KILX 280500
TAFPIA
TAF
KPIA 280520Z 2806/2906 VRB05KT P6SM SCT250=



000
FTUS43 KILX 280500
TAFSPI
TAF
KSPI 280520Z 2806/2906 VRB05KT P6SM BKN250=



000
FTUS43 KILX 280500
TAFDEC
TAF
KDEC 280520Z 2806/2906 VRB05KT P6SM SCT250=



000
FTUS43 KILX 280500
TAFDEC
TAF
KDEC 280520Z 2806/2906 VRB05KT P6SM SCT250=



000
FTUS43 KILX 280500
TAFCMI
TAF
KCMI 280520Z 2806/2906 VRB05KT P6SM SKC=



000
FTUS43 KILX 272300
TAFBMI
TAF
KBMI 272320Z 2800/2824 04008KT P6SM SCT250
     FM281400 VRB06KT P6SM SKC=



000
FTUS43 KILX 272300
TAFCMI
TAF
KCMI 272320Z 2800/2824 03005KT P6SM SKC
     FM281400 VRB05KT P6SM SKC=



000
FTUS43 KILX 272300
TAFDEC
TAF
KDEC 272320Z 2800/2824 03005KT P6SM SCT250
     FM281400 VRB06KT P6SM SKC=



000
FTUS43 KILX 272300
TAFPIA
TAF
KPIA 272320Z 2800/2824 05005KT P6SM BKN250
     FM281400 VRB05KT P6SM SKC=



000
FTUS43 KILX 272300
TAFSPI
TAF
KSPI 272320Z 2800/2824 04005KT P6SM BKN250
     FM281400 VRB05KT P6SM SKC=



000
FTUS43 KILX 272300
TAFCMI
TAF
KCMI 272320Z 2800/2824 03005KT P6SM SKC
     FM281400 VRB05KT P6SM SKC=



000
FTUS43 KILX 272300
TAFSPI
TAF
KSPI 272320Z 2800/2824 04005KT P6SM BKN250
     FM281400 VRB05KT P6SM SKC=



000
FTUS43 KILX 272300
TAFPIA
TAF
KPIA 272320Z 2800/2824 05005KT P6SM BKN250
     FM281400 VRB05KT P6SM SKC=



000
FTUS43 KILX 272300
TAFDEC
TAF
KDEC 272320Z 2800/2824 03005KT P6SM SCT250
     FM281400 VRB06KT P6SM SKC=



000
FTUS43 KILX 272300
TAFBMI
TAF
KBMI 272320Z 2800/2824 04008KT P6SM SCT250
     FM281400 VRB06KT P6SM SKC=



000
FTUS43 KILX 271700
TAFCMI
TAF
KCMI 271724Z 2718/2818 36014G20KT P6SM VCSH BKN035
      TEMPO 2718/2719 5SM -SHSN BKN020
     FM272100 36013KT P6SM SCT040
     FM280100 04006KT P6SM SKC=



000
FTUS43 KILX 271700
TAFDEC
TAF
KDEC 271724Z 2718/2818 35014G20KT P6SM SCT050
     FM280000 04004KT P6SM FEW250=



000
FTUS43 KILX 271700
TAFBMI
TAF
KBMI 271724Z 2718/2818 36014G20KT P6SM SCT035
     FM280000 05007KT P6SM SKC=



000
FTUS43 KILX 271700
TAFSPI
TAF
KSPI 271724Z 2718/2818 01012G18KT P6SM SCT050
     FM280000 05003KT P6SM SCT250=



000
FTUS43 KILX 271700
TAFPIA
TAF
KPIA 271724Z 2718/2818 36010G17KT P6SM FEW040
     FM272300 07004KT P6SM SCT250=



000
FTUS43 KILX 271700
TAFDEC
TAF
KDEC 271724Z 2718/2818 35014G20KT P6SM SCT050
     FM280000 04004KT P6SM FEW250=



000
FTUS43 KILX 271700
TAFCMI
TAF
KCMI 271724Z 2718/2818 36014G20KT P6SM VCSH BKN035
      TEMPO 2718/2719 5SM -SHSN BKN020
     FM272100 36013KT P6SM SCT040
     FM280100 04006KT P6SM SKC=



000
FTUS43 KILX 271700
TAFSPI
TAF
KSPI 271724Z 2718/2818 01012G18KT P6SM SCT050
     FM280000 05003KT P6SM SCT250=



000
FTUS43 KILX 271700
TAFBMI
TAF
KBMI 271724Z 2718/2818 36014G20KT P6SM SCT035
     FM280000 05007KT P6SM SKC=



000
FTUS43 KILX 271700
TAFPIA
TAF
KPIA 271724Z 2718/2818 36010G17KT P6SM FEW040
     FM272300 07004KT P6SM SCT250=



000
FTUS43 KILX 271100
TAFPIA
TAF
KPIA 271127Z 2712/2812 36007KT P6SM SCT050 BKN100
     FM271400 36010KT P6SM SCT050
     FM280000 04004KT P6SM SCT150=



000
FTUS43 KILX 271100
TAFSPI
TAF
KSPI 271127Z 2712/2812 35008KT P6SM SCT040 BKN100
     FM271400 35012KT P6SM SCT050
     FM280000 05004KT P6SM SCT150=



000
FTUS43 KILX 271100
TAFBMI
TAF
KBMI 271127Z 2712/2812 36010KT P6SM SCT040 BKN100
     FM271400 36014KT P6SM SCT050
     FM280000 03007KT P6SM SCT150=



000
FTUS43 KILX 271100
TAFCMI
TAF
KCMI 271127Z 2712/2812 36008KT P6SM BKN035
      TEMPO 2712/2716 BKN025 OVC035
     FM271700 36014KT P6SM SCT050
     FM280000 03007KT P6SM SCT150=



000
FTUS43 KILX 271100
TAFDEC
TAF
KDEC 271127Z 2712/2812 36010KT P6SM SCT040 BKN100
     FM271400 35014KT P6SM SCT050
     FM280000 03005KT P6SM SCT150=



000
FTUS43 KILX 270500
TAFSPI
TAF
KSPI 270520Z 2706/2806 35010KT P6SM SCT035 BKN100
     FM271400 35010G18KT P6SM SCT050
     FM280000 03004KT P6SM SCT150=



000
FTUS43 KILX 270500
TAFBMI
TAF
KBMI 270520Z 2706/2806 36009KT P6SM SCT035 BKN100
     FM271400 36012G20KT P6SM SCT050
     FM280000 03007KT P6SM SCT150=



000
FTUS43 KILX 270500
TAFCMI
TAF
KCMI 270520Z 2706/2806 36008KT P6SM SCT035 BKN100
     FM271200 36012KT P6SM BKN035
     FM271700 36012G20KT P6SM SCT050
     FM280000 03007KT P6SM SCT150=



000
FTUS43 KILX 270500
TAFDEC
TAF
KDEC 270520Z 2706/2806 34010KT P6SM SCT035 BKN100
     FM271400 35012G20KT P6SM SCT050
     FM280000 03005KT P6SM SCT150=



000
FTUS43 KILX 270500
TAFPIA
TAF
KPIA 270520Z 2706/2806 36007KT P6SM SCT035 BKN100
     FM271400 36010G18KT P6SM SCT050
     FM280000 VRB04KT P6SM SCT150=



000
FTUS43 KILX 270500
TAFPIA
TAF
KPIA 270520Z 2706/2806 36007KT P6SM SCT035 BKN100
     FM271400 36010G18KT P6SM SCT050
     FM280000 VRB04KT P6SM SCT150=



000
FTUS43 KILX 270500
TAFDEC
TAF
KDEC 270520Z 2706/2806 34010KT P6SM SCT035 BKN100
     FM271400 35012G20KT P6SM SCT050
     FM280000 03005KT P6SM SCT150=



000
FTUS43 KILX 270500
TAFBMI
TAF
KBMI 270520Z 2706/2806 36009KT P6SM SCT035 BKN100
     FM271400 36012G20KT P6SM SCT050
     FM280000 03007KT P6SM SCT150=



000
FTUS43 KILX 270500
TAFCMI
TAF
KCMI 270520Z 2706/2806 36008KT P6SM SCT035 BKN100
     FM271200 36012KT P6SM BKN035
     FM271700 36012G20KT P6SM SCT050
     FM280000 03007KT P6SM SCT150=



000
FTUS43 KILX 270500
TAFSPI
TAF
KSPI 270520Z 2706/2806 35010KT P6SM SCT035 BKN100
     FM271400 35010G18KT P6SM SCT050
     FM280000 03004KT P6SM SCT150=



000
FTUS43 KILX 270400 AAA
TAFCMI
TAF AMD
KCMI 270441Z 2705/2724 36008KT P6SM SCT035 BKN100
     FM271200 36012KT P6SM BKN035
     FM271700 36012G20KT P6SM SCT050=



000
FTUS43 KILX 270400 AAA
TAFCMI
TAF AMD
KCMI 270441Z 2705/2724 36008KT P6SM SCT035 BKN100
     FM271200 36012KT P6SM BKN035
     FM271700 36012G20KT P6SM SCT050=



000
FTUS43 KILX 262300
TAFSPI
TAF
KSPI 262326Z 2700/2724 32010KT P6SM SCT050 BKN200
     FM270500 34005KT P6SM SCT025 BKN100
     FM271400 35010G18KT P6SM SCT050=



000
FTUS43 KILX 262300
TAFDEC
TAF
KDEC 262326Z 2700/2724 32012KT P6SM SCT050 BKN200
     FM270500 34008KT P6SM SCT025 BKN100
     FM271400 35012G20KT P6SM SCT050=



000
FTUS43 KILX 262300
TAFCMI
TAF
KCMI 262326Z 2700/2724 33012KT P6SM SCT050 BKN200
     FM270600 34008KT P6SM SCT025 BKN100
      TEMPO 2711/2715 BKN025
     FM271600 36012G20KT P6SM SCT050=



000
FTUS43 KILX 262300
TAFPIA
TAF
KPIA 262326Z 2700/2724 32008KT P6SM SCT050 BKN200
     FM270300 35005KT P6SM SCT025 BKN100
     FM271400 36010G18KT P6SM SCT050=



000
FTUS43 KILX 262300
TAFBMI
TAF
KBMI 262326Z 2700/2724 34013KT P6SM SCT050 BKN200
     FM270500 35009KT P6SM SCT025 BKN100
      TEMPO 2710/2714 BKN025
     FM271400 36012G20KT P6SM SCT050=



000
FTUS43 KILX 261700
TAFCMI
TAF
KCMI 261723Z 2618/2718 34012G20KT P6SM SCT025 BKN150
      TEMPO 2618/2620 BKN025
     FM262300 34009KT P6SM SCT050 BKN150
     FM271000 35012KT P6SM BKN025=



000
FTUS43 KILX 261700
TAFBMI
TAF
KBMI 261723Z 2618/2718 33012G22KT P6SM SCT025 BKN150
     FM270000 35011KT P6SM BKN035=



000
FTUS43 KILX 261700
TAFPIA
TAF
KPIA 261723Z 2618/2718 32010G18KT P6SM SCT050 BKN150
     FM262300 35005KT P6SM BKN200
     FM271300 36010KT P6SM SCT120=



000
FTUS43 KILX 261700
TAFBMI
TAF
KBMI 261723Z 2618/2718 33012G22KT P6SM SCT025 BKN150
     FM270000 35011KT P6SM BKN035=



000
FTUS43 KILX 261700
TAFSPI
TAF
KSPI 261723Z 2618/2718 33012G20KT P6SM SCT050 BKN150
     FM262300 34005KT P6SM BKN100
     FM271400 35011KT P6SM SCT050=



000
FTUS43 KILX 261700
TAFCMI
TAF
KCMI 261723Z 2618/2718 34012G20KT P6SM SCT025 BKN150
      TEMPO 2618/2620 BKN025
     FM262300 34009KT P6SM SCT050 BKN150
     FM271000 35012KT P6SM BKN025=



000
FTUS43 KILX 261700
TAFPIA
TAF
KPIA 261723Z 2618/2718 32010G18KT P6SM SCT050 BKN150
     FM262300 35005KT P6SM BKN200
     FM271300 36010KT P6SM SCT120=



000
FTUS43 KILX 261700
TAFDEC
TAF
KDEC 261723Z 2618/2718 33012G20KT P6SM SCT025 BKN150
     FM270000 34009KT P6SM BKN100
     FM271400 35012KT P6SM BKN050=



000
FTUS43 KILX 261700
TAFDEC
TAF
KDEC 261723Z 2618/2718 33012G20KT P6SM SCT025 BKN150
     FM270000 34009KT P6SM BKN100
     FM271400 35012KT P6SM BKN050=



000
FTUS43 KILX 261700
TAFSPI
TAF
KSPI 261723Z 2618/2718 33012G20KT P6SM SCT050 BKN150
     FM262300 34005KT P6SM BKN100
     FM271400 35011KT P6SM SCT050=



000
FTUS43 KILX 261400 AAB
TAFDEC
TAF AMD
KDEC 261425Z 2614/2712 33012G20KT P6SM SCT020 BKN150
     FM270000 34009KT P6SM SCT050 BKN200=



000
FTUS43 KILX 261400 AAB
TAFDEC
TAF AMD
KDEC 261425Z 2614/2712 33012G20KT P6SM SCT020 BKN150
     FM270000 34009KT P6SM SCT050 BKN200=



000
FTUS43 KILX 261400 AAA
TAFSPI
TAF AMD
KSPI 261424Z 2614/2712 33012G20KT P6SM BKN150
     FM262300 35005KT P6SM SCT050 BKN200=



000
FTUS43 KILX 261400 AAA
TAFSPI
TAF AMD
KSPI 261424Z 2614/2712 33012G20KT P6SM BKN150
     FM262300 35005KT P6SM SCT050 BKN200=



000
FTUS43 KILX 261400 AAA
TAFBMI
TAF AMD
KBMI 261423Z 2614/2712 33012G22KT P6SM SCT150
     FM270000 34009KT P6SM SCT050 BKN200=



000
FTUS43 KILX 261400 AAA
TAFBMI
TAF AMD
KBMI 261423Z 2614/2712 33012G22KT P6SM SCT150
     FM270000 34009KT P6SM SCT050 BKN200=



000
FTUS43 KILX 261400 AAA
TAFPIA
TAF AMD
KPIA 261422Z 2614/2712 32010G18KT P6SM SCT150
     FM262300 35005KT P6SM SCT050 BKN200=



000
FTUS43 KILX 261400 AAA
TAFPIA
TAF AMD
KPIA 261422Z 2614/2712 32010G18KT P6SM SCT150
     FM262300 35005KT P6SM SCT050 BKN200=



000
FTUS43 KILX 261200 AAA
TAFCMI
TAF AMD
KCMI 261238Z 2613/2712 33012KT P6SM -RA SCT016 BKN060
     FM261400 34012G20KT P6SM SCT100
     FM270000 34009KT P6SM SCT050 BKN200=



000
FTUS43 KILX 261200 AAA
TAFCMI
TAF AMD
KCMI 261238Z 2613/2712 33012KT P6SM -RA SCT016 BKN060
     FM261400 34012G20KT P6SM SCT100
     FM270000 34009KT P6SM SCT050 BKN200=



000
FTUS43 KILX 261200 AAA
TAFDEC
TAF AMD
KDEC 261237Z 2613/2712 35012KT P6SM OVC015
     FM261400 35012G20KT P6SM BKN250
     FM270000 34009KT P6SM SCT050 BKN200=



000
FTUS43 KILX 261200 AAA
TAFDEC
TAF AMD
KDEC 261237Z 2613/2712 35012KT P6SM OVC015
     FM261400 35012G20KT P6SM BKN250
     FM270000 34009KT P6SM SCT050 BKN200=



000
FTUS43 KILX 261100
TAFPIA
TAF
KPIA 261138Z 2612/2712 32005KT P6SM FEW100
     FM261400 34010G18KT P6SM SCT250
     FM262300 35005KT P6SM SCT050 BKN200=



000
FTUS43 KILX 261100
TAFCMI
TAF
KCMI 261138Z 2612/2712 36011KT P6SM -RA SCT010 OVC015
     FM261300 35012G20KT P6SM SCT100
     FM270000 34009KT P6SM SCT050 BKN200=



000
FTUS43 KILX 261100
TAFBMI
TAF
KBMI 261138Z 2612/2712 35009KT P6SM FEW100
     FM261400 35012G22KT P6SM BKN250
     FM270000 34009KT P6SM SCT050 BKN200=



000
FTUS43 KILX 261100
TAFSPI
TAF
KSPI 261138Z 2612/2712 35012KT P6SM OVC100
     FM261400 35012G20KT P6SM BKN250
     FM262300 35005KT P6SM SCT050 BKN200=



000
FTUS43 KILX 261100
TAFPIA
TAF
KPIA 261138Z 2612/2712 32005KT P6SM FEW100
     FM261400 34010G18KT P6SM SCT250
     FM262300 35005KT P6SM SCT050 BKN200=



000
FTUS43 KILX 261100
TAFCMI
TAF
KCMI 261138Z 2612/2712 36011KT P6SM -RA SCT010 OVC015
     FM261300 35012G20KT P6SM SCT100
     FM270000 34009KT P6SM SCT050 BKN200=



000
FTUS43 KILX 261100
TAFDEC
TAF
KDEC 261138Z 2612/2712 35012KT P6SM SCT050 BKN100
     FM261500 35012G20KT P6SM BKN250
     FM270000 34009KT P6SM SCT050 BKN200=



000
FTUS43 KILX 261100
TAFSPI
TAF
KSPI 261138Z 2612/2712 35012KT P6SM OVC100
     FM261400 35012G20KT P6SM BKN250
     FM262300 35005KT P6SM SCT050 BKN200=



000
FTUS43 KILX 261100
TAFBMI
TAF
KBMI 261138Z 2612/2712 35009KT P6SM FEW100
     FM261400 35012G22KT P6SM BKN250
     FM270000 34009KT P6SM SCT050 BKN200=



000
FTUS43 KILX 261100
TAFDEC
TAF
KDEC 261138Z 2612/2712 35012KT P6SM SCT050 BKN100
     FM261500 35012G20KT P6SM BKN250
     FM270000 34009KT P6SM SCT050 BKN200=



000
FTUS43 KILX 261100 AAA
TAFDEC
TAF AMD
KDEC 261121Z 2611/2706 35012KT P6SM -RASN SCT020 OVC050
     FM261300 35012G18KT P6SM OVC100
     FM261600 33012G20KT P6SM BKN250
     FM270000 34009KT P6SM SCT050 BKN200=



000
FTUS43 KILX 261000 AAB
TAFCMI
TAF AMD
KCMI 261054Z 2611/2706 34010KT P6SM -RASN OVC015
     FM261200 35013KT P6SM OVC080
     FM261400 33012G20KT P6SM BKN250
     FM270000 34009KT P6SM SCT050 BKN200=



000
FTUS43 KILX 261000 AAB
TAFCMI
TAF AMD
KCMI 261054Z 2611/2706 34010KT P6SM -RASN OVC015
     FM261200 35013KT P6SM OVC080
     FM261400 33012G20KT P6SM BKN250
     FM270000 34009KT P6SM SCT050 BKN200=



000
FTUS43 KILX 261000 AAB
TAFDEC
TAF AMD
KDEC 261053Z 2611/2706 35010G18KT P6SM -RASN SCT012 OVC020
     FM261200 35012G18KT P6SM OVC050
     FM261600 33012G20KT P6SM BKN250
     FM270000 34009KT P6SM SCT050 BKN200=



000
FTUS43 KILX 260800 AAA
TAFSPI
TAF AMD
KSPI 260801Z 2608/2706 35007KT P6SM -RA SCT015 OVC050
     FM261100 35011KT P6SM OVC080
     FM261300 33012G20KT P6SM BKN250
     FM262300 35005KT P6SM SCT050 BKN200=



000
FTUS43 KILX 260800 AAA
TAFCMI
TAF AMD
KCMI 260801Z 2608/2706 36011KT 5SM -RA BR OVC050
     FM261200 35013KT P6SM OVC080
     FM261400 33012G20KT P6SM BKN250
     FM270000 34009KT P6SM SCT050 BKN200=



000
FTUS43 KILX 260800 AAA
TAFBMI
TAF AMD
KBMI 260801Z 2608/2706 34012KT P6SM -RA OVC045
     FM260900 35012KT P6SM OVC080
     FM261400 33012G20KT P6SM BKN250
     FM270000 34009KT P6SM SCT050 BKN200=



000
FTUS43 KILX 260800 AAA
TAFDEC
TAF AMD
KDEC 260800Z 2608/2706 36008KT P6SM -RA OVC060
     FM261100 35013KT P6SM OVC080
     FM261300 33012G20KT P6SM BKN250
     FM270000 34009KT P6SM SCT050 BKN200=



000
FTUS43 KILX 260500
TAFDEC
TAF
KDEC 260520Z 2606/2706 35013KT 4SM -SHRA BR FEW007 OVC035
      TEMPO 2606/2609 OVC007
     FM261100 35013KT P6SM OVC080
     FM261300 33012G20KT P6SM BKN250
     FM270000 34009KT P6SM SCT050 BKN200=



000
FTUS43 KILX 260500
TAFBMI
TAF
KBMI 260520Z 2606/2706 34007KT 4SM -SHRA BR SCT015 OVC035
     FM260900 35012KT P6SM OVC080
     FM261400 33012G20KT P6SM BKN250
     FM270000 34009KT P6SM SCT050 BKN200=



000
FTUS43 KILX 260500
TAFPIA
TAF
KPIA 260520Z 2606/2706 34008KT P6SM VCSH OVC080
     FM261300 33010G18KT P6SM BKN250
     FM262300 35005KT P6SM SCT050 BKN200=



000
FTUS43 KILX 260500
TAFCMI
TAF
KCMI 260520Z 2606/2706 35013KT 4SM -SHRA BR FEW007 OVC035
      TEMPO 2606/2610 OVC007
     FM261200 35013KT P6SM OVC080
     FM261400 33012G20KT P6SM BKN250
     FM270000 34009KT P6SM SCT050 BKN200=



000
FTUS43 KILX 260500
TAFSPI
TAF
KSPI 260520Z 2606/2706 35013KT 5SM -SHRA BR OVC035
     FM261100 35013KT P6SM OVC080
     FM261300 33012G20KT P6SM BKN250
     FM262300 35005KT P6SM SCT050 BKN200=



000
FTUS43 KILX 260400 AAA
TAFCMI
TAF AMD
KCMI 260424Z 2604/2624 35013KT 4SM -SHRA BR FEW007 OVC035
      TEMPO 2604/2608 OVC007
     FM261200 35013KT P6SM OVC080
     FM261400 33012G20KT P6SM BKN250=



000
FTUS43 KILX 260400 AAA
TAFSPI
TAF AMD
KSPI 260424Z 2604/2624 35013KT 5SM -SHRA BR OVC035
     FM261100 35013KT P6SM OVC080
     FM261300 33012G20KT P6SM BKN250=



000
FTUS43 KILX 260400 AAA
TAFPIA
TAF AMD
KPIA 260424Z 2604/2624 34008KT P6SM OVC080
     FM261300 33010G18KT P6SM BKN250=



000
FTUS43 KILX 260400 AAA
TAFDEC
TAF AMD
KDEC 260424Z 2604/2624 35013KT 4SM -SHRA BR FEW007 OVC035
      TEMPO 2604/2608 OVC007
     FM261100 35013KT P6SM OVC080
     FM261300 33012G20KT P6SM BKN250=



000
FTUS43 KILX 260400 AAA
TAFBMI
TAF AMD
KBMI 260424Z 2604/2624 34007KT 6SM BR VCSH OVC035
     FM260900 35012KT P6SM OVC080
     FM261400 33012G20KT P6SM BKN250=



    US Dept of Commerce
    National Oceanic and Atmospheric Administration
    National Weather Service
    1325 East West Highway
    Silver Spring, MD 20910
    Page Author: NWS Internet Services Team
Disclaimer
Information Quality
Credits
Glossary
Privacy Policy
Freedom of Information Act (FOIA)
About Us
Career Opportunities